Time;durP1;ratioP1;P1;durP2;ratioP2;P2;SDS_P1;SDS_P2;PMS_P1;PMS_P2;Temp;Humidity;BMP_temperature;BMP_pressure;BME280_temperature;BME280_humidity;BME280_pressure;Samples;Min_cycle;Max_cycle;Signal;HPM_P1;HPM_P2
2022/03/10 00:00:23;;;;;;;18.10;10.43;;;5.70;56.90;;;;;;5140779;27;36928;-57
2022/03/10 00:02:52;;;;;;;16.60;9.50;;;5.70;57.00;;;;;;5140141;27;36287;-58
2022/03/10 00:05:19;;;;;;;13.20;8.48;;;5.60;57.20;;;;;;5140336;27;37465;-57
2022/03/10 00:07:47;;;;;;;16.83;8.32;;;5.60;57.10;;;;;;5139334;27;37373;-56
2022/03/10 00:10:15;;;;;;;14.55;8.40;;;5.60;57.00;;;;;;5140797;27;36599;-57
2022/03/10 00:12:50;;;;;;;15.68;8.48;;;5.60;57.00;;;;;;5140759;27;36246;-57
2022/03/10 00:15:19;;;;;;;15.13;8.75;;;5.50;57.40;;;;;;5140370;27;38713;-56
2022/03/10 00:17:46;;;;;;;14.68;9.60;;;5.40;57.90;;;;;;5140853;27;40127;-57
2022/03/10 00:20:15;;;;;;;14.27;8.48;;;5.40;58.30;;;;;;5140384;27;35245;-57
2022/03/10 00:22:47;;;;;;;14.00;8.55;;;5.40;58.90;;;;;;5139420;27;37558;-57
2022/03/10 00:25:14;;;;;;;16.40;8.85;;;5.40;58.80;;;;;;5141613;27;37626;-57
2022/03/10 00:27:42;;;;;;;14.95;8.57;;;5.50;58.40;;;;;;5139485;27;37145;-57
2022/03/10 00:30:10;;;;;;;13.55;8.48;;;5.50;58.30;;;;;;5139970;27;37973;-57
2022/03/10 00:32:45;;;;;;;15.43;8.43;;;5.60;58.30;;;;;;5139492;27;38437;-57
2022/03/10 00:35:18;;;;;;;16.63;8.65;;;5.70;58.40;;;;;;5140360;27;37822;-57
2022/03/10 00:37:47;;;;;;;16.15;8.95;;;5.70;58.20;;;;;;5139729;27;37323;-57
2022/03/10 00:40:14;;;;;;;17.42;9.23;;;5.80;58.40;;;;;;5139785;27;37201;-58
2022/03/10 00:42:43;;;;;;;14.90;8.70;;;5.80;57.70;;;;;;5138755;27;38889;-57
2022/03/10 00:45:11;;;;;;;20.42;9.45;;;5.80;57.90;;;;;;5140306;27;37735;-57
2022/03/10 00:47:39;;;;;;;28.90;10.52;;;5.80;57.90;;;;;;5139730;27;37404;-57
2022/03/10 00:50:08;;;;;;;16.25;9.23;;;5.80;58.00;;;;;;5139690;27;37064;-57
2022/03/10 00:52:41;;;;;;;18.15;9.13;;;5.80;58.30;;;;;;5140712;27;37704;-57
2022/03/10 00:55:10;;;;;;;19.05;8.90;;;5.80;58.20;;;;;;5141260;27;37801;-56
2022/03/10 00:57:37;;;;;;;14.68;9.32;;;5.80;58.50;;;;;;5140247;27;38162;-57
2022/03/10 01:00:06;;;;;;;15.43;9.13;;;5.90;58.20;;;;;;5140407;27;35146;-57
2022/03/10 01:02:35;;;;;;;15.85;9.27;;;5.80;58.00;;;;;;5138202;27;38542;-57
2022/03/10 01:05:04;;;;;;;16.45;8.40;;;5.80;58.10;;;;;;5139469;27;20882;-56
2022/03/10 01:07:31;;;;;;;17.08;9.80;;;5.80;58.20;;;;;;5138229;27;37757;-57
2022/03/10 01:10:01;;;;;;;14.20;8.88;;;5.80;58.10;;;;;;5140400;27;36284;-57
2022/03/10 01:12:28;;;;;;;14.80;8.80;;;5.80;58.20;;;;;;5139092;27;37488;-57
2022/03/10 01:14:55;;;;;;;13.73;8.93;;;5.70;58.50;;;;;;5140334;27;36427;-57
2022/03/10 01:17:23;;;;;;;17.50;10.52;;;5.60;58.70;;;;;;5139416;27;38119;-57
2022/03/10 01:19:50;;;;;;;15.80;9.20;;;5.60;58.80;;;;;;5140139;27;36492;-57
2022/03/10 01:22:18;;;;;;;14.90;8.82;;;5.50;59.20;;;;;;5138668;27;38520;-57
2022/03/10 01:24:45;;;;;;;16.95;10.32;;;5.50;59.40;;;;;;5140831;27;37834;-56
2022/03/10 01:27:14;;;;;;;16.98;8.43;;;5.40;59.60;;;;;;5140070;27;37674;-57
2022/03/10 01:29:41;;;;;;;16.73;9.85;;;5.30;60.10;;;;;;5139483;27;36713;-57
2022/03/10 01:32:08;;;;;;;15.68;9.38;;;5.10;60.60;;;;;;5139419;27;37647;-56
2022/03/10 01:34:36;;;;;;;15.95;9.40;;;5.00;61.10;;;;;;5139821;27;39154;-56
2022/03/10 01:37:04;;;;;;;14.77;8.60;;;4.90;61.20;;;;;;5142759;27;37375;-57
2022/03/10 01:39:32;;;;;;;17.50;9.10;;;4.80;61.20;;;;;;5144498;27;35396;-57
2022/03/10 01:42:00;;;;;;;15.40;9.35;;;4.70;61.10;;;;;;5142697;27;37318;-56
2022/03/10 01:44:28;;;;;;;15.07;8.95;;;4.80;61.10;;;;;;5143449;27;38864;-56
2022/03/10 01:46:56;;;;;;;14.80;9.00;;;4.80;61.20;;;;;;5142653;27;37545;-58
2022/03/10 01:49:23;;;;;;;15.93;9.55;;;4.80;61.00;;;;;;5142679;27;37896;-57
2022/03/10 01:51:51;;;;;;;17.10;10.30;;;4.70;61.00;;;;;;5142662;27;37567;-57
2022/03/10 01:54:19;;;;;;;17.30;10.00;;;4.60;61.30;;;;;;5141647;27;37685;-57
2022/03/10 01:56:47;;;;;;;15.95;9.13;;;4.50;61.40;;;;;;5141482;27;37548;-56
2022/03/10 01:59:15;;;;;;;28.42;9.73;;;4.60;61.40;;;;;;5141069;27;36505;-56
2022/03/10 02:01:43;;;;;;;18.63;8.63;;;4.60;61.10;;;;;;5141102;27;38660;-57
2022/03/10 02:04:11;;;;;;;15.63;9.27;;;4.60;61.00;;;;;;5141793;27;38415;-56
2022/03/10 02:06:38;;;;;;;19.23;9.55;;;4.60;61.10;;;;;;5142711;27;38465;-57
2022/03/10 02:11:52;;;;;;;16.15;9.73;;;4.70;60.90;;;;;;5142830;27;38417;-57
2022/03/10 02:17:21;;;;;;;16.55;8.98;;;4.80;60.10;;;;;;5143553;27;38054;-56
2022/03/10 02:19:50;;;;;;;15.80;9.38;;;4.90;59.70;;;;;;5142268;27;35264;-57
2022/03/10 02:22:20;;;;;;;14.63;8.80;;;4.90;59.40;;;;;;5141212;27;38239;-56
2022/03/10 02:24:48;;;;;;;16.95;9.68;;;4.90;59.30;;;;;;5142014;27;37732;-57
2022/03/10 02:27:18;;;;;;;15.18;9.43;;;4.80;59.30;;;;;;5142457;27;38091;-57
2022/03/10 02:29:46;;;;;;;16.20;9.63;;;4.80;59.90;;;;;;5141704;27;35390;-57
2022/03/10 02:32:15;;;;;;;18.05;9.23;;;4.70;60.60;;;;;;5142275;27;36241;-57
2022/03/10 02:34:43;;;;;;;15.30;9.70;;;4.60;61.20;;;;;;5142473;27;37848;-57
2022/03/10 02:37:11;;;;;;;15.60;9.80;;;4.60;61.70;;;;;;5142742;27;37445;-56
2022/03/10 02:39:40;;;;;;;17.33;10.50;;;4.50;62.00;;;;;;5142537;27;37460;-57
2022/03/10 02:42:09;;;;;;;18.85;10.35;;;4.40;62.50;;;;;;5141539;27;36509;-57
2022/03/10 02:44:41;;;;;;;14.05;9.10;;;4.40;62.70;;;;;;5141789;27;36711;-56
2022/03/10 02:47:08;;;;;;;19.42;9.65;;;4.40;63.30;;;;;;5141129;27;36278;-56
2022/03/10 02:49:36;;;;;;;13.65;9.10;;;4.40;63.30;;;;;;5142674;27;35887;-56
2022/03/10 02:52:04;;;;;;;16.02;9.65;;;4.40;63.40;;;;;;5142990;27;38429;-57
2022/03/10 02:54:32;;;;;;;14.98;10.15;;;4.50;63.50;;;;;;5141470;27;37877;-56
2022/03/10 02:57:00;;;;;;;16.58;9.80;;;4.50;63.60;;;;;;5141640;27;36114;-57
2022/03/10 02:59:28;;;;;;;15.60;10.23;;;4.40;64.00;;;;;;5141809;27;36713;-57
2022/03/10 03:01:58;;;;;;;15.43;9.73;;;4.40;64.20;;;;;;5140988;27;38889;-57
2022/03/10 03:04:25;;;;;;;16.30;10.15;;;4.40;64.40;;;;;;5140690;27;38406;-57
2022/03/10 03:06:53;;;;;;;19.00;9.07;;;4.30;64.60;;;;;;5142329;27;37312;-57
2022/03/10 03:09:20;;;;;;;17.08;9.95;;;4.30;65.00;;;;;;5141748;27;37619;-56
2022/03/10 03:11:48;;;;;;;16.77;9.77;;;4.20;65.50;;;;;;5142505;27;38020;-56
2022/03/10 03:14:17;;;;;;;18.65;10.10;;;4.20;66.00;;;;;;5142528;27;36473;-57
2022/03/10 03:16:44;;;;;;;19.75;10.68;;;4.20;66.10;;;;;;5142115;27;36246;-56
2022/03/10 03:19:11;;;;;;;16.35;9.75;;;4.30;65.70;;;;;;5142193;27;37382;-56
2022/03/10 03:21:39;;;;;;;17.67;10.10;;;4.30;65.60;;;;;;5140524;27;37302;-56
2022/03/10 03:24:06;;;;;;;17.13;10.43;;;4.40;65.30;;;;;;5142124;27;36434;-56
2022/03/10 03:26:34;;;;;;;17.83;10.55;;;4.40;65.00;;;;;;5140395;27;37538;-56
2022/03/10 03:29:01;;;;;;;16.98;9.60;;;4.30;64.70;;;;;;5140738;27;37747;-57
2022/03/10 03:31:30;;;;;;;19.13;11.07;;;4.30;65.00;;;;;;5142055;27;37173;-57
2022/03/10 03:33:57;;;;;;;19.52;10.02;;;4.30;65.00;;;;;;5139759;27;37671;-56
2022/03/10 03:36:24;;;;;;;18.70;10.32;;;4.20;65.20;;;;;;5142240;27;38004;-56
2022/03/10 03:38:51;;;;;;;15.50;9.38;;;4.10;65.70;;;;;;5139253;27;37720;-56
2022/03/10 03:41:19;;;;;;;16.17;10.75;;;4.10;65.70;;;;;;5139855;27;37432;-57
2022/03/10 03:43:46;;;;;;;23.77;9.93;;;4.10;65.30;;;;;;5140773;27;38308;-56
2022/03/10 03:46:13;;;;;;;14.52;8.55;;;4.10;64.90;;;;;;5141386;27;36275;-57
2022/03/10 03:48:42;;;;;;;19.88;10.25;;;4.10;64.50;;;;;;5141303;27;35778;-56
2022/03/10 03:51:10;;;;;;;16.42;10.02;;;4.20;64.10;;;;;;5140515;27;37129;-57
2022/03/10 03:53:37;;;;;;;17.27;11.00;;;4.10;63.80;;;;;;5140288;27;37544;-56
2022/03/10 03:56:05;;;;;;;19.35;10.93;;;4.20;63.90;;;;;;5140632;27;36560;-57
2022/03/10 03:58:32;;;;;;;16.17;9.95;;;4.20;63.80;;;;;;5139977;27;37700;-57
2022/03/10 04:00:59;;;;;;;17.63;9.93;;;4.10;63.40;;;;;;5140880;27;37443;-57
2022/03/10 04:03:27;;;;;;;19.10;9.98;;;4.10;63.30;;;;;;5138914;27;36246;-57
2022/03/10 04:05:55;;;;;;;17.30;10.00;;;4.20;63.30;;;;;;5139578;27;38435;-56
2022/03/10 04:08:23;;;;;;;15.95;9.57;;;4.10;63.20;;;;;;5140792;27;37113;-58
2022/03/10 04:10:51;;;;;;;21.70;10.57;;;4.10;63.00;;;;;;5140310;27;37521;-57
2022/03/10 04:13:18;;;;;;;15.90;9.55;;;4.10;63.00;;;;;;5140804;27;39155;-57
2022/03/10 04:15:46;;;;;;;18.52;9.73;;;4.10;62.90;;;;;;5140723;27;37496;-57
2022/03/10 04:18:13;;;;;;;21.77;10.35;;;4.00;63.10;;;;;;5139683;27;37310;-57
2022/03/10 04:20:40;;;;;;;19.65;9.90;;;4.00;63.10;;;;;;5140178;27;37667;-57
2022/03/10 04:23:09;;;;;;;17.30;10.45;;;3.90;63.50;;;;;;5141280;27;37294;-57
2022/03/10 04:25:37;;;;;;;16.58;9.55;;;3.80;63.60;;;;;;5140702;27;37309;-57
2022/03/10 04:28:05;;;;;;;18.13;10.57;;;3.80;63.60;;;;;;5140106;27;36789;-57
2022/03/10 04:30:33;;;;;;;17.95;10.43;;;3.90;63.70;;;;;;5140971;27;37622;-57
2022/03/10 04:33:02;;;;;;;14.90;8.88;;;3.80;63.80;;;;;;5141042;27;38533;-56
2022/03/10 04:35:30;;;;;;;18.73;11.38;;;3.80;63.80;;;;;;5140750;27;37355;-57
2022/03/10 04:37:57;;;;;;;17.88;10.40;;;3.70;64.00;;;;;;5139499;27;37098;-57
2022/03/10 04:40:26;;;;;;;17.27;10.60;;;3.70;64.20;;;;;;5140262;27;36279;-56
2022/03/10 04:42:53;;;;;;;20.52;9.85;;;3.70;64.70;;;;;;5139863;27;37564;-56
2022/03/10 04:45:21;;;;;;;16.48;9.57;;;3.70;65.20;;;;;;5141048;27;36667;-56
2022/03/10 04:47:48;;;;;;;16.05;9.75;;;3.70;65.70;;;;;;5140893;27;36434;-57
2022/03/10 04:50:18;;;;;;;20.80;10.88;;;3.70;65.80;;;;;;5141160;27;38109;-56
2022/03/10 04:52:45;;;;;;;16.10;9.25;;;3.70;66.00;;;;;;5140697;27;39074;-57
2022/03/10 04:55:13;;;;;;;14.88;9.90;;;3.70;66.00;;;;;;5138360;27;36177;-57
2022/03/10 04:57:43;;;;;;;17.67;10.38;;;3.70;65.90;;;;;;5139364;27;35246;-57
2022/03/10 05:00:12;;;;;;;17.90;10.32;;;3.80;66.40;;;;;;5139610;27;37530;-57
2022/03/10 05:02:40;;;;;;;19.73;10.82;;;3.70;66.50;;;;;;5138984;27;37769;-57
2022/03/10 05:05:10;;;;;;;15.25;9.55;;;3.70;66.60;;;;;;5140450;27;39221;-57
2022/03/10 05:07:37;;;;;;;21.45;10.52;;;3.70;66.70;;;;;;5140382;27;36248;-57
2022/03/10 05:10:05;;;;;;;14.85;10.00;;;3.80;66.80;;;;;;5139717;27;37637;-57
2022/03/10 05:12:33;;;;;;;18.90;10.05;;;3.70;66.40;;;;;;5139594;27;37928;-56
2022/03/10 05:15:02;;;;;;;17.30;10.32;;;3.80;66.30;;;;;;5139976;27;37316;-57
2022/03/10 05:17:29;;;;;;;16.00;9.60;;;3.80;66.20;;;;;;5140048;27;36701;-57
2022/03/10 05:19:56;;;;;;;19.17;9.57;;;3.80;66.10;;;;;;5139193;27;37117;-57
2022/03/10 05:22:24;;;;;;;18.38;9.50;;;3.80;66.20;;;;;;5138741;27;38119;-56
2022/03/10 05:24:51;;;;;;;17.38;10.48;;;3.80;66.00;;;;;;5139146;27;37798;-57
2022/03/10 05:27:18;;;;;;;16.38;9.25;;;3.80;65.70;;;;;;5138571;27;38846;-57
2022/03/10 05:29:46;;;;;;;16.67;9.45;;;3.80;65.50;;;;;;5137464;27;37652;-57
2022/03/10 05:32:18;;;;;;;16.88;9.70;;;3.80;65.40;;;;;;5138328;27;37449;-56
2022/03/10 05:34:45;;;;;;;15.73;9.93;;;3.70;65.20;;;;;;5139182;27;37322;-56
2022/03/10 05:37:13;;;;;;;15.05;9.55;;;3.80;64.70;;;;;;5138628;27;36636;-56
2022/03/10 05:39:40;;;;;;;20.35;8.82;;;3.80;64.20;;;;;;5138079;27;38480;-56
2022/03/10 05:42:07;;;;;;;15.93;9.55;;;4.00;63.90;;;;;;5138676;27;36464;-56
2022/03/10 05:44:35;;;;;;;15.82;9.25;;;3.80;63.40;;;;;;5139632;27;38678;-56
2022/03/10 05:47:02;;;;;;;13.95;9.07;;;3.80;63.10;;;;;;5136811;27;36325;-57
2022/03/10 05:49:31;;;;;;;17.77;9.32;;;3.80;62.90;;;;;;5138287;27;39826;-56
2022/03/10 05:51:58;;;;;;;17.27;8.40;;;3.80;62.80;;;;;;5140005;27;36292;-56
2022/03/10 05:54:25;;;;;;;14.35;8.75;;;3.80;62.70;;;;;;5138221;27;38291;-56
2022/03/10 05:56:52;;;;;;;17.60;9.93;;;3.80;62.50;;;;;;5138883;27;33936;-57
2022/03/10 05:59:20;;;;;;;14.70;8.77;;;3.80;62.30;;;;;;5138637;27;36819;-57
2022/03/10 06:01:47;;;;;;;18.15;8.75;;;3.80;62.20;;;;;;5136028;27;38423;-56
2022/03/10 06:04:15;;;;;;;17.40;9.15;;;3.80;62.10;;;;;;5138439;27;36162;-56
2022/03/10 06:06:44;;;;;;;15.68;9.10;;;3.90;62.10;;;;;;5138053;27;38973;-56
2022/03/10 06:09:12;;;;;;;16.25;9.32;;;3.90;61.90;;;;;;5138762;27;36317;-57
2022/03/10 06:11:39;;;;;;;19.10;9.00;;;3.90;61.70;;;;;;5139274;27;37626;-57
2022/03/10 06:14:06;;;;;;;16.05;9.10;;;3.90;61.70;;;;;;5138918;27;38617;-56
2022/03/10 06:16:34;;;;;;;17.73;10.05;;;3.90;61.50;;;;;;5139267;27;37907;-57
2022/03/10 06:19:01;;;;;;;18.55;9.57;;;4.00;61.50;;;;;;5138571;27;37512;-56
2022/03/10 06:21:28;;;;;;;14.70;8.85;;;4.00;61.40;;;;;;5138568;27;37605;-56
2022/03/10 06:23:57;;;;;;;17.50;8.52;;;4.10;61.30;;;;;;5142920;27;37089;-57
2022/03/10 06:26:25;;;;;;;18.00;9.20;;;4.20;61.20;;;;;;5141623;27;38394;-56
2022/03/10 06:28:52;;;;;;;17.58;10.13;;;4.30;61.00;;;;;;5141506;27;37430;-59
2022/03/10 06:31:20;;;;;;;15.40;8.73;;;4.40;61.30;;;;;;5141521;27;38438;-57
2022/03/10 06:33:47;;;;;;;15.73;9.20;;;4.50;60.50;;;;;;5139659;27;35847;-57
2022/03/10 06:36:14;;;;;;;18.67;11.25;;;4.60;60.60;;;;;;5140012;27;37472;-57
2022/03/10 06:38:42;;;;;;;18.15;8.90;;;4.70;60.40;;;;;;5140746;27;38211;-57
2022/03/10 06:41:10;;;;;;;17.10;9.10;;;4.70;60.40;;;;;;5141788;27;37097;-57
2022/03/10 06:43:38;;;;;;;17.10;9.77;;;4.80;60.20;;;;;;5141839;27;37123;-57
2022/03/10 06:46:05;;;;;;;15.68;9.00;;;4.90;59.90;;;;;;5141832;27;37551;-57
2022/03/10 06:48:32;;;;;;;15.10;8.95;;;4.90;59.70;;;;;;5140575;27;37479;-57
2022/03/10 06:51:00;;;;;;;23.70;10.23;;;4.90;59.60;;;;;;5142785;27;39957;-57
2022/03/10 06:53:27;;;;;;;13.90;8.85;;;4.90;59.60;;;;;;5142186;27;38033;-57
2022/03/10 06:55:55;;;;;;;16.55;10.15;;;5.00;59.70;;;;;;5142648;27;35575;-58
2022/03/10 06:58:24;;;;;;;16.23;9.57;;;5.00;59.80;;;;;;5141215;27;37597;-57
2022/03/10 07:00:51;;;;;;;16.75;10.23;;;5.10;59.80;;;;;;5139957;27;39145;-57
2022/03/10 07:03:21;;;;;;;15.52;9.48;;;5.20;59.70;;;;;;5139798;27;37389;-57
2022/03/10 07:05:49;;;;;;;17.30;9.57;;;5.20;60.00;;;;;;5140889;27;37923;-57
2022/03/10 07:08:17;;;;;;;15.43;9.13;;;5.20;60.00;;;;;;5138377;27;39179;-57
2022/03/10 07:10:44;;;;;;;17.35;9.73;;;5.30;60.00;;;;;;5139776;27;37532;-57
2022/03/10 07:13:11;;;;;;;16.67;10.77;;;5.40;60.30;;;;;;5139783;27;37330;-57
2022/03/10 07:15:40;;;;;;;14.63;9.43;;;5.50;60.20;;;;;;5140217;27;37034;-57
2022/03/10 07:18:08;;;;;;;18.13;9.57;;;5.70;60.00;;;;;;5138610;27;36253;-57
2022/03/10 07:20:35;;;;;;;18.27;9.77;;;5.80;60.00;;;;;;5139265;27;38594;-57
2022/03/10 07:23:02;;;;;;;16.90;9.25;;;6.00;60.10;;;;;;5142028;27;38134;-57
2022/03/10 07:25:29;;;;;;;15.35;9.57;;;6.10;60.00;;;;;;5141916;27;36974;-57
2022/03/10 07:27:57;;;;;;;17.35;10.65;;;6.00;59.40;;;;;;5140674;27;38459;-56
2022/03/10 07:30:24;;;;;;;17.33;10.40;;;6.40;59.40;;;;;;5141107;27;38611;-57
2022/03/10 07:32:53;;;;;;;18.92;10.82;;;6.50;59.00;;;;;;5140094;27;37732;-57
2022/03/10 07:35:20;;;;;;;15.13;10.05;;;6.60;58.90;;;;;;5139731;27;36400;-57
2022/03/10 07:37:49;;;;;;;14.68;9.65;;;6.70;58.90;;;;;;5135893;27;37807;-57
2022/03/10 07:40:17;;;;;;;18.42;10.43;;;6.70;58.60;;;;;;5140655;27;37873;-57
2022/03/10 07:42:44;;;;;;;15.95;10.40;;;6.80;58.30;;;;;;5139265;27;38620;-57
2022/03/10 07:45:12;;;;;;;15.32;10.05;;;6.90;58.10;;;;;;5140346;27;35472;-57
2022/03/10 07:47:40;;;;;;;17.15;10.80;;;7.00;57.90;;;;;;5139637;27;37559;-57
2022/03/10 07:50:09;;;;;;;16.63;10.65;;;7.10;57.60;;;;;;5140350;27;37816;-57
2022/03/10 07:52:37;;;;;;;17.23;9.85;;;7.10;57.60;;;;;;5140047;27;37281;-57
2022/03/10 07:55:08;;;;;;;16.38;10.13;;;7.10;57.60;;;;;;5140089;27;35885;-57
2022/03/10 07:57:35;;;;;;;21.08;10.52;;;7.10;57.60;;;;;;5140180;27;37536;-57
2022/03/10 08:00:04;;;;;;;16.88;10.82;;;7.20;57.40;;;;;;5137576;27;37848;-57
2022/03/10 08:02:31;;;;;;;17.98;9.93;;;7.30;57.30;;;;;;5137093;27;36263;-57
2022/03/10 08:04:59;;;;;;;19.60;10.43;;;7.30;57.10;;;;;;5140917;27;36694;-57
2022/03/10 08:07:32;;;;;;;20.27;9.65;;;7.40;57.50;;;;;;5140339;27;37528;-56
2022/03/10 08:10:00;;;;;;;16.63;10.23;;;7.60;57.60;;;;;;5140752;27;36549;-56
2022/03/10 08:12:29;;;;;;;19.17;10.60;;;7.90;57.30;;;;;;5141591;27;37488;-57
2022/03/10 08:14:56;;;;;;;21.45;10.52;;;8.10;56.70;;;;;;5141182;27;37030;-58
2022/03/10 08:17:25;;;;;;;16.47;9.83;;;8.30;56.00;;;;;;5140184;27;38437;-58
2022/03/10 08:19:52;;;;;;;16.60;10.15;;;8.50;56.10;;;;;;5141116;27;37700;-58
2022/03/10 08:22:20;;;;;;;15.52;10.40;;;8.70;56.00;;;;;;5140316;27;36137;-57
2022/03/10 08:24:49;;;;;;;17.05;9.95;;;8.90;55.30;;;;;;5140787;27;35760;-58
2022/03/10 08:27:17;;;;;;;15.82;10.40;;;9.20;56.10;;;;;;5140888;27;36441;-58
2022/03/10 08:29:45;;;;;;;14.73;10.00;;;9.50;54.70;;;;;;5140583;27;36512;-58
2022/03/10 08:32:13;;;;;;;16.35;9.60;;;10.10;53.80;;;;;;5138563;27;37510;-57
2022/03/10 08:34:40;;;;;;;15.75;10.00;;;10.50;52.20;;;;;;5138733;27;36772;-58
2022/03/10 08:37:08;;;;;;;25.33;12.00;;;10.80;50.50;;;;;;5137237;27;37500;-58
2022/03/10 08:39:35;;;;;;;15.70;10.73;;;11.10;50.10;;;;;;5137730;27;37941;-57
2022/03/10 08:42:06;;;;;;;19.63;10.40;;;11.40;49.40;;;;;;5138247;27;38547;-57
2022/03/10 08:44:33;;;;;;;14.07;9.95;;;11.60;48.20;;;;;;5137398;27;37528;-57
2022/03/10 08:47:00;;;;;;;17.27;10.70;;;12.00;46.40;;;;;;5137484;27;37637;-57
2022/03/10 08:49:28;;;;;;;16.98;11.55;;;12.30;46.30;;;;;;5137837;27;37961;-57
2022/03/10 08:51:55;;;;;;;16.30;10.73;;;12.40;46.00;;;;;;5139430;27;40574;-57
2022/03/10 08:54:23;;;;;;;15.35;9.60;;;12.50;45.40;;;;;;5139230;27;36159;-58
2022/03/10 08:56:51;;;;;;;13.68;9.85;;;12.60;45.50;;;;;;5138416;27;37744;-57
2022/03/10 08:59:20;;;;;;;15.43;10.55;;;13.00;44.40;;;;;;5138361;27;38758;-58
2022/03/10 09:01:48;;;;;;;15.43;10.93;;;13.40;44.40;;;;;;5138093;27;38501;-57
2022/03/10 09:04:16;;;;;;;17.35;10.40;;;13.80;43.60;;;;;;5138404;27;36693;-58
2022/03/10 09:06:43;;;;;;;15.60;10.32;;;14.40;42.60;;;;;;5140666;27;38134;-58
2022/03/10 09:09:11;;;;;;;15.32;10.38;;;14.80;41.50;;;;;;5140129;27;37922;-57
2022/03/10 09:11:39;;;;;;;15.75;10.52;;;15.10;40.60;;;;;;5139829;27;38266;-57
2022/03/10 09:14:06;;;;;;;16.67;10.60;;;15.30;39.70;;;;;;5139587;27;38059;-57
2022/03/10 09:16:35;;;;;;;14.23;10.15;;;15.60;38.90;;;;;;5140736;27;38577;-58
2022/03/10 09:19:02;;;;;;;17.13;11.35;;;15.80;38.50;;;;;;5138298;27;37965;-57
2022/03/10 09:21:29;;;;;;;15.02;10.85;;;16.00;37.90;;;;;;5138557;27;38357;-57
2022/03/10 09:23:57;;;;;;;14.13;10.50;;;16.10;38.00;;;;;;5139439;27;35390;-58
2022/03/10 09:26:24;;;;;;;15.38;10.80;;;16.10;38.50;;;;;;5138268;27;37540;-58
2022/03/10 09:28:52;;;;;;;17.40;10.10;;;15.90;38.50;;;;;;5139084;27;38155;-58
2022/03/10 09:31:19;;;;;;;16.70;10.60;;;15.80;38.40;;;;;;5139867;27;36150;-58
2022/03/10 09:33:48;;;;;;;14.80;10.55;;;15.80;38.60;;;;;;5138588;27;38863;-58
2022/03/10 09:36:15;;;;;;;14.40;10.75;;;15.70;37.50;;;;;;5139460;27;38469;-58
2022/03/10 09:38:43;;;;;;;16.20;10.20;;;15.70;37.60;;;;;;5135783;27;39542;-57
2022/03/10 09:41:10;;;;;;;15.95;11.02;;;15.80;37.10;;;;;;5138884;27;37191;-58
2022/03/10 09:43:39;;;;;;;15.95;11.32;;;16.00;36.90;;;;;;5139911;27;37158;-58
2022/03/10 09:46:08;;;;;;;14.65;11.45;;;16.20;36.50;;;;;;5138713;27;37055;-57
2022/03/10 09:48:37;;;;;;;15.68;11.32;;;16.30;36.30;;;;;;5139675;27;37818;-58
2022/03/10 09:51:07;;;;;;;15.57;11.00;;;16.30;36.20;;;;;;5139662;27;36164;-58
2022/03/10 09:53:35;;;;;;;15.77;10.60;;;16.20;35.90;;;;;;5139334;27;37592;-58
2022/03/10 09:56:03;;;;;;;17.23;10.75;;;16.20;35.90;;;;;;5139901;27;37488;-57
2022/03/10 09:58:31;;;;;;;16.20;11.77;;;16.40;35.80;;;;;;5142830;27;37735;-58
2022/03/10 10:00:59;;;;;;;17.00;10.82;;;16.50;34.80;;;;;;5141159;27;37309;-58
2022/03/10 10:03:27;;;;;;;16.02;11.00;;;16.60;34.90;;;;;;5143229;27;37837;-58
2022/03/10 10:05:59;;;;;;;16.17;11.35;;;16.70;34.60;;;;;;5140295;27;39544;-58
2022/03/10 10:08:30;;;;;;;17.42;11.52;;;16.90;34.10;;;;;;5143388;27;37295;-58
2022/03/10 10:11:00;;;;;;;17.80;11.70;;;17.20;34.20;;;;;;5142028;27;37676;-57
2022/03/10 10:13:30;;;;;;;15.43;11.85;;;17.60;33.90;;;;;;5142986;27;36999;-58
2022/03/10 10:16:01;;;;;;;17.05;11.98;;;18.00;33.30;;;;;;5142038;27;37065;-58
2022/03/10 10:18:30;;;;;;;16.88;11.10;;;18.20;32.40;;;;;;5141699;27;37785;-58
2022/03/10 10:20:58;;;;;;;14.55;11.02;;;18.50;32.20;;;;;;5140673;27;37456;-58
2022/03/10 10:23:31;;;;;;;17.92;11.52;;;18.60;31.20;;;;;;5142853;27;36697;-56
2022/03/10 10:26:00;;;;;;;19.38;12.43;;;18.60;32.10;;;;;;5143413;27;36318;-57
2022/03/10 10:28:29;;;;;;;16.98;11.98;;;18.40;31.30;;;;;;5143039;27;39475;-57
2022/03/10 10:30:59;;;;;;;18.17;11.80;;;18.30;31.60;;;;;;5143349;27;38397;-57
2022/03/10 10:33:27;;;;;;;17.10;11.93;;;18.10;31.40;;;;;;5143097;27;38303;-58
2022/03/10 10:36:15;;;;;;;16.70;12.57;;;17.90;31.20;;;;;;5141903;27;36262;-58
2022/03/10 10:38:45;;;;;;;17.80;12.00;;;18.00;30.20;;;;;;5139968;27;37763;-57
2022/03/10 10:41:24;;;;;;;16.73;12.50;;;17.90;30.90;;;;;;5140561;27;36684;-58
2022/03/10 10:43:57;;;;;;;17.27;12.60;;;18.00;30.30;;;;;;5142051;27;35100;-58
2022/03/10 10:46:28;;;;;;;18.50;11.80;;;18.00;30.50;;;;;;5139103;27;37815;-58
2022/03/10 10:48:56;;;;;;;18.45;12.18;;;18.20;31.00;;;;;;5140788;27;36360;-58
2022/03/10 10:51:29;;;;;;;16.92;12.45;;;18.30;30.90;;;;;;5122892;27;37329;-58
2022/03/10 10:53:59;;;;;;;19.58;13.55;;;18.30;30.70;;;;;;5141628;27;36787;-59
2022/03/10 10:56:27;;;;;;;18.50;12.38;;;18.10;30.40;;;;;;5122853;27;36886;-58
2022/03/10 10:58:54;;;;;;;18.48;13.23;;;17.90;30.70;;;;;;5141358;27;37863;-58
2022/03/10 11:01:29;;;;;;;17.95;12.55;;;17.70;30.40;;;;;;5142003;27;36528;-58
2022/03/10 11:03:57;;;;;;;19.30;14.02;;;17.60;30.30;;;;;;5140694;27;36766;-58
2022/03/10 11:06:26;;;;;;;18.38;13.07;;;17.70;31.00;;;;;;5141599;27;37604;-58
2022/03/10 11:08:54;;;;;;;20.00;13.07;;;18.00;30.20;;;;;;5140855;27;38253;-58
2022/03/10 11:11:27;;;;;;;18.08;13.30;;;18.00;29.30;;;;;;5141928;27;36529;-58
2022/03/10 11:13:56;;;;;;;20.83;13.77;;;18.10;29.40;;;;;;5142128;27;36764;-58
2022/03/10 11:16:24;;;;;;;20.02;13.05;;;18.20;29.60;;;;;;5139377;27;38212;-58
2022/03/10 11:18:54;;;;;;;19.90;13.13;;;18.20;29.80;;;;;;5140382;27;35275;-56
2022/03/10 11:22:01;;;;;;;21.10;13.50;;;18.20;29.80;;;;;;5140466;27;37640;-56
2022/03/10 11:24:55;;;;;;;21.20;13.02;;;18.20;29.40;;;;;;5138422;27;35748;-55
2022/03/10 11:27:30;;;;;;;;;;;18.10;29.60;;;;;;5137199;27;38405;-56
2022/03/10 11:30:00;;;;;;;19.83;13.82;;;18.00;29.30;;;;;;5120228;27;37911;-55
2022/03/10 11:32:29;;;;;;;18.60;12.73;;;18.00;29.40;;;;;;5140367;27;39498;-55
2022/03/10 11:35:00;;;;;;;23.08;13.75;;;18.00;29.80;;;;;;5139746;27;37312;-55
2022/03/10 11:37:51;;;;;;;19.73;13.05;;;18.00;29.50;;;;;;5141226;27;38881;-56
2022/03/10 11:40:38;;;;;;;21.65;12.07;;;18.10;28.80;;;;;;5140601;27;37671;-55
2022/03/10 11:43:08;;;;;;;19.92;12.95;;;18.30;29.10;;;;;;5142372;27;38023;-55
2022/03/10 11:45:35;;;;;;;17.00;12.30;;;18.30;29.20;;;;;;5141357;27;38636;-54
2022/03/10 11:48:35;;;;;;;18.13;12.85;;;18.50;29.30;;;;;;5141837;27;39818;-54
2022/03/10 11:51:20;;;;;;;16.73;11.85;;;18.50;29.10;;;;;;5142557;27;37691;-56
2022/03/10 11:53:57;;;;;;;18.00;12.57;;;18.20;28.60;;;;;;5141791;27;38916;-55
2022/03/10 11:56:58;;;;;;;17.65;12.73;;;17.80;29.50;;;;;;5141621;27;36609;-54
2022/03/10 11:59:28;;;;;;;18.70;12.73;;;17.60;29.60;;;;;;5128689;27;36285;-55
2022/03/10 12:01:56;;;;;;;18.70;12.93;;;17.40;30.00;;;;;;5141142;27;37456;-58
2022/03/10 12:04:35;;;;;;;18.80;13.68;;;17.30;29.90;;;;;;5139490;27;37441;-58
2022/03/10 12:07:02;;;;;;;17.17;12.32;;;17.00;30.00;;;;;;5134716;27;36734;-58
2022/03/10 12:09:33;;;;;;;21.25;13.52;;;16.90;31.10;;;;;;5131970;27;37595;-58
2022/03/10 12:12:14;;;;;;;19.58;13.13;;;16.70;30.90;;;;;;5134091;27;36322;-58
2022/03/10 12:14:44;;;;;;;20.90;13.20;;;16.50;30.30;;;;;;5133584;27;37595;-57
2022/03/10 12:17:49;;;;;;;22.35;13.90;;;16.30;31.40;;;;;;5135968;27;37707;-51
2022/03/10 12:20:18;;;;;;;19.83;13.18;;;16.20;32.40;;;;;;5133026;27;36254;-52
2022/03/10 12:23:12;;;;;;;18.83;12.82;;;16.10;33.00;;;;;;5134988;27;38766;-52
2022/03/10 12:25:40;;;;;;;20.02;13.70;;;15.90;32.50;;;;;;5134227;27;38491;-49
2022/03/10 12:28:09;;;;;;;23.15;13.40;;;15.80;33.10;;;;;;5133431;27;37415;-52
2022/03/10 12:30:44;;;;;;;21.70;14.40;;;15.70;33.20;;;;;;5133020;27;38525;-48
2022/03/10 12:33:12;;;;;;;21.27;13.40;;;15.70;33.20;;;;;;5131425;27;38032;-48
2022/03/10 12:35:41;;;;;;;21.80;13.10;;;15.70;33.40;;;;;;5132182;27;37416;-47
2022/03/10 12:38:09;;;;;;;22.30;14.00;;;15.60;33.30;;;;;;5132870;27;36450;-50
2022/03/10 12:40:38;;;;;;;19.25;12.95;;;15.50;33.40;;;;;;5132971;27;37585;-50
2022/03/10 12:43:07;;;;;;;20.10;13.55;;;15.40;33.30;;;;;;5132957;27;37914;-50
2022/03/10 12:45:45;;;;;;;20.67;13.80;;;15.30;33.60;;;;;;5124246;27;36349;-49
2022/03/10 12:48:15;;;;;;;20.92;13.25;;;15.20;33.90;;;;;;5128786;27;37059;-50
2022/03/10 12:50:45;;;;;;;19.00;12.98;;;15.00;34.20;;;;;;5129545;27;37657;-47
2022/03/10 12:53:13;;;;;;;19.55;13.05;;;14.90;35.00;;;;;;5129012;27;39059;-48